Time;durP1;ratioP1;P1;durP2;ratioP2;P2;SDS_P1;SDS_P2;PMS_P1;PMS_P2;Temp;Humidity;BMP_temperature;BMP_pressure;BME280_temperature;BME280_humidity;BME280_pressure;Samples;Min_cycle;Max_cycle;Signal;HPM_P1;HPM_P2
2022/06/01 00:01:36;;;;;;;15.90;14.02;;;10.00;99.90;;;;;;5041462;28;20029;-59
2022/06/01 00:04:02;;;;;;;17.63;14.90;;;10.10;99.90;;;;;;5038261;28;20063;-59
2022/06/01 00:06:28;;;;;;;17.70;16.00;;;10.10;99.90;;;;;;5026067;28;20502;-59
2022/06/01 00:08:54;;;;;;;18.90;16.90;;;10.10;99.90;;;;;;5014772;28;20060;-59
2022/06/01 00:11:20;;;;;;;17.27;15.52;;;10.00;99.90;;;;;;5043999;28;20075;-59
2022/06/01 00:13:47;;;;;;;18.60;16.10;;;10.10;99.90;;;;;;5034428;28;20052;-59
2022/06/01 00:16:13;;;;;;;25.05;22.23;;;10.00;99.90;;;;;;5053203;28;20053;-59
2022/06/01 00:18:40;;;;;;;24.13;21.55;;;10.10;99.90;;;;;;5040203;28;20052;-59
2022/06/01 00:21:07;;;;;;;23.40;20.98;;;10.20;99.90;;;;;;5035987;28;20073;-59
2022/06/01 00:23:33;;;;;;;22.20;19.83;;;10.30;99.90;;;;;;5011795;28;20492;-59
2022/06/01 00:25:59;;;;;;;22.52;19.80;;;10.20;99.90;;;;;;5039973;28;20077;-59
2022/06/01 00:28:25;;;;;;;21.48;19.35;;;10.20;99.90;;;;;;5040255;28;20070;-59
2022/06/01 00:30:51;;;;;;;21.67;19.70;;;10.20;99.90;;;;;;5042277;28;20041;-59
2022/06/01 00:33:16;;;;;;;24.65;19.77;;;10.30;99.90;;;;;;5036668;28;20353;-59
2022/06/01 00:35:42;;;;;;;20.80;18.73;;;10.30;99.90;;;;;;5032755;28;20503;-59
2022/06/01 00:38:09;;;;;;;20.10;17.55;;;10.30;99.90;;;;;;5035650;28;20060;-60
2022/06/01 00:40:36;;;;;;;19.50;17.60;;;10.40;99.90;;;;;;5037029;28;20112;-59
2022/06/01 00:43:36;;;;;;;19.42;17.20;;;10.40;99.90;;;;;;5038824;28;20048;-59
2022/06/01 00:46:02;;;;;;;20.50;18.42;;;10.40;99.90;;;;;;5036011;28;20033;-60
2022/06/01 00:48:31;;;;;;;20.83;18.77;;;10.30;99.90;;;;;;5017824;28;20360;-59
2022/06/01 00:50:57;;;;;;;20.10;18.10;;;10.40;99.90;;;;;;5050925;28;20045;-60
2022/06/01 00:53:27;;;;;;;19.58;17.50;;;10.40;99.90;;;;;;5041000;28;20052;-59
2022/06/01 00:56:00;;;;;;;20.52;18.52;;;10.40;99.90;;;;;;5055809;28;20044;-59
2022/06/01 00:58:30;;;;;;;19.70;17.63;;;10.40;99.90;;;;;;5036418;28;20071;-59
2022/06/01 01:00:58;;;;;;;18.95;17.15;;;10.40;99.90;;;;;;5034394;28;20034;-59
2022/06/01 01:03:26;;;;;;;18.63;16.83;;;10.40;99.90;;;;;;5040386;28;20120;-59
2022/06/01 01:06:05;;;;;;;18.27;16.45;;;10.40;99.90;;;;;;5041258;28;20115;-59
2022/06/01 01:08:32;;;;;;;19.75;17.85;;;10.40;99.90;;;;;;5055257;28;20049;-59
2022/06/01 01:10:57;;;;;;;17.77;16.08;;;10.50;99.90;;;;;;5051790;28;20052;-59
2022/06/01 01:13:23;;;;;;;17.63;15.02;;;10.30;99.90;;;;;;5052329;28;20041;-59
2022/06/01 01:15:52;;;;;;;20.30;16.13;;;10.40;99.90;;;;;;5037570;28;20041;-59
2022/06/01 01:18:21;;;;;;;16.08;14.48;;;10.50;99.90;;;;;;5039232;28;20053;-59
2022/06/01 01:21:09;;;;;;;16.00;14.45;;;10.50;99.90;;;;;;5035311;28;20037;-59
2022/06/01 01:23:59;;;;;;;18.27;16.38;;;10.60;99.90;;;;;;5035161;28;20219;-59
2022/06/01 01:26:27;;;;;;;17.95;16.20;;;10.70;99.90;;;;;;5035647;28;20043;-60
2022/06/01 01:28:54;;;;;;;17.58;15.95;;;10.60;99.90;;;;;;5038984;28;20045;-59
2022/06/01 01:31:22;;;;;;;18.67;16.67;;;10.60;99.90;;;;;;5052891;28;20049;-59
2022/06/01 01:33:53;;;;;;;18.92;16.88;;;10.70;99.90;;;;;;5030732;28;20519;-59
2022/06/01 01:36:24;;;;;;;19.67;17.77;;;10.60;99.90;;;;;;5038020;28;20499;-59
2022/06/01 01:39:03;;;;;;;19.80;17.90;;;10.70;99.90;;;;;;5052493;28;20501;-59
2022/06/01 01:41:50;;;;;;;20.17;18.15;;;10.60;99.90;;;;;;5026153;28;20503;-59
2022/06/01 01:44:34;;;;;;;20.17;18.25;;;10.70;99.90;;;;;;5036662;28;20207;-60
2022/06/01 01:47:01;;;;;;;20.10;18.20;;;10.60;99.90;;;;;;5027787;28;20041;-59
2022/06/01 01:49:38;;;;;;;21.08;19.08;;;10.60;99.90;;;;;;5032825;28;20067;-59
2022/06/01 01:52:12;;;;;;;21.40;19.35;;;10.60;99.90;;;;;;5031436;28;20504;-60
2022/06/01 01:55:06;;;;;;;20.33;18.42;;;10.50;99.90;;;;;;5034359;28;20037;-59
2022/06/01 01:57:50;;;;;;;;;;;10.50;99.90;;;;;;5039543;28;20130;-59
2022/06/01 02:00:29;;;;;;;22.42;20.13;;;10.50;99.90;;;;;;5038824;28;20096;-59
2022/06/01 02:02:58;;;;;;;23.40;20.92;;;10.40;99.90;;;;;;5058049;28;20116;-59
2022/06/01 02:06:06;;;;;;;23.95;21.45;;;10.40;99.90;;;;;;5035287;28;20484;-59
2022/06/01 02:08:47;;;;;;;22.90;20.50;;;10.50;99.90;;;;;;5035953;28;20072;-59
2022/06/01 02:14:29;;;;;;;23.80;21.40;;;10.40;99.90;;;;;;5035646;28;20076;-60
2022/06/01 02:16:59;;;;;;;24.33;22.00;;;10.20;99.90;;;;;;5036174;28;20049;-59
2022/06/01 02:19:30;;;;;;;25.13;22.58;;;10.20;99.90;;;;;;5051128;28;20361;-59
2022/06/01 02:21:56;;;;;;;23.17;20.98;;;10.20;99.90;;;;;;5059959;28;20406;-59
2022/06/01 02:24:23;;;;;;;25.85;23.40;;;10.20;99.90;;;;;;5040022;28;20049;-59
2022/06/01 02:26:50;;;;;;;24.70;22.20;;;10.10;99.90;;;;;;5038239;28;20033;-60
2022/06/01 02:29:26;;;;;;;26.23;23.58;;;10.10;99.90;;;;;;5050690;28;20384;-59
2022/06/01 02:31:52;;;;;;;26.13;23.58;;;10.10;99.90;;;;;;5038704;28;20052;-60
2022/06/01 02:34:19;;;;;;;26.95;24.25;;;10.00;99.90;;;;;;5030660;28;20423;-59
2022/06/01 02:36:45;;;;;;;25.50;23.00;;;10.00;99.90;;;;;;5034210;28;20468;-59
2022/06/01 02:39:15;;;;;;;25.50;22.95;;;10.00;99.90;;;;;;5036688;28;20033;-59
2022/06/01 02:44:25;;;;;;;27.23;24.73;;;10.00;99.90;;;;;;5051502;28;20083;-59
2022/06/01 02:46:51;;;;;;;25.73;23.13;;;10.00;99.90;;;;;;5035875;28;20045;-59
2022/06/01 02:49:17;;;;;;;27.45;24.90;;;9.90;99.90;;;;;;5050553;28;20033;-59
2022/06/01 02:51:44;;;;;;;25.98;23.42;;;10.00;99.90;;;;;;5030069;28;20044;-59
2022/06/01 02:54:10;;;;;;;27.23;24.52;;;10.10;99.90;;;;;;5037630;28;20442;-59
2022/06/01 02:56:36;;;;;;;26.20;23.65;;;10.00;99.90;;;;;;5038664;28;20037;-59
2022/06/01 02:59:02;;;;;;;25.52;23.13;;;10.00;99.90;;;;;;5036206;28;20059;-60
2022/06/01 03:01:28;;;;;;;25.52;23.13;;;9.90;99.90;;;;;;5035652;28;20033;-59
2022/06/01 03:03:54;;;;;;;26.15;23.67;;;10.00;99.90;;;;;;5032120;28;20675;-58
2022/06/01 03:06:19;;;;;;;25.15;22.65;;;9.90;99.90;;;;;;5049418;28;20034;-59
2022/06/01 03:08:45;;;;;;;26.05;23.45;;;10.00;99.90;;;;;;5037875;28;20061;-59
2022/06/01 03:11:12;;;;;;;24.30;21.90;;;9.90;99.90;;;;;;5033695;28;20044;-58
2022/06/01 03:13:38;;;;;;;24.25;21.95;;;9.90;99.90;;;;;;5043497;28;20044;-58
2022/06/01 03:16:04;;;;;;;24.95;22.38;;;10.00;99.90;;;;;;5046672;28;20564;-58
2022/06/01 03:18:31;;;;;;;25.83;23.05;;;10.00;99.90;;;;;;5036239;28;20127;-58
2022/06/01 03:21:00;;;;;;;25.05;22.55;;;10.10;99.90;;;;;;5045498;28;20043;-58
2022/06/01 03:23:26;;;;;;;24.05;21.73;;;10.00;99.90;;;;;;5047200;28;20040;-58
2022/06/01 03:25:52;;;;;;;25.00;22.67;;;10.00;99.90;;;;;;5052429;28;20455;-59
2022/06/01 03:28:19;;;;;;;24.83;22.42;;;10.00;99.90;;;;;;5043620;28;20045;-58
2022/06/01 03:30:45;;;;;;;25.83;23.17;;;10.10;99.90;;;;;;5039634;28;20037;-58
2022/06/01 03:33:13;;;;;;;25.02;22.67;;;10.10;99.90;;;;;;5034879;28;20049;-59
2022/06/01 03:35:40;;;;;;;27.67;24.88;;;10.10;99.90;;;;;;5032197;28;20049;-60
2022/06/01 03:38:06;;;;;;;27.90;25.20;;;10.10;99.90;;;;;;5033217;28;20428;-59
2022/06/01 03:40:34;;;;;;;27.30;24.58;;;10.00;99.90;;;;;;5040665;28;20095;-59
2022/06/01 03:43:01;;;;;;;26.77;24.33;;;10.00;99.90;;;;;;5035726;28;20029;-60
2022/06/01 03:48:14;;;;;;;27.70;24.90;;;10.00;99.90;;;;;;5036949;28;20135;-60
2022/06/01 03:50:41;;;;;;;28.25;25.45;;;10.00;99.90;;;;;;5050781;28;20037;-60
2022/06/01 03:53:07;;;;;;;25.95;23.42;;;10.00;99.90;;;;;;5034353;28;20118;-58
2022/06/01 03:55:34;;;;;;;26.60;24.10;;;10.00;99.90;;;;;;5033116;28;20045;-60
2022/06/01 03:58:01;;;;;;;26.65;24.13;;;10.00;99.90;;;;;;5033628;28;20045;-60
2022/06/01 04:00:27;;;;;;;27.27;24.73;;;10.00;99.90;;;;;;5036475;28;20059;-59
2022/06/01 04:02:53;;;;;;;27.90;25.27;;;10.00;99.90;;;;;;5041561;28;20052;-59
2022/06/01 04:05:21;;;;;;;27.48;24.75;;;9.90;99.90;;;;;;5049727;28;20057;-59
2022/06/01 04:07:47;;;;;;;26.73;24.23;;;9.90;99.90;;;;;;5049795;28;20377;-59
2022/06/01 04:10:13;;;;;;;27.13;24.55;;;10.00;99.90;;;;;;5034699;28;20060;-59
2022/06/01 04:12:39;;;;;;;28.38;25.42;;;9.90;99.90;;;;;;5043475;28;20037;-59
2022/06/01 04:15:06;;;;;;;29.88;26.95;;;9.80;99.90;;;;;;5045101;28;20037;-60
2022/06/01 04:17:32;;;;;;;28.70;25.70;;;9.80;99.90;;;;;;5035666;28;20044;-59
2022/06/01 04:19:57;;;;;;;26.98;24.42;;;9.90;99.90;;;;;;5040932;28;20037;-60
2022/06/01 04:22:23;;;;;;;29.30;26.50;;;9.90;99.90;;;;;;5037342;28;20046;-60
2022/06/01 04:24:49;;;;;;;29.50;26.75;;;9.80;99.90;;;;;;5036445;28;20385;-59
2022/06/01 04:27:16;;;;;;;29.40;26.65;;;9.80;99.90;;;;;;5039552;28;20049;-60
2022/06/01 04:29:41;;;;;;;29.98;27.10;;;10.00;99.90;;;;;;5029013;28;20055;-60
2022/06/01 04:32:14;;;;;;;29.02;26.13;;;10.00;99.90;;;;;;5042714;28;20045;-59
2022/06/01 04:34:39;;;;;;;28.92;26.23;;;10.00;99.90;;;;;;5041968;28;20071;-60
2022/06/01 04:37:06;;;;;;;28.65;25.85;;;10.00;99.90;;;;;;5043416;28;20055;-59
2022/06/01 04:39:32;;;;;;;30.15;27.33;;;10.10;99.90;;;;;;5039027;28;20044;-60
2022/06/01 04:41:58;;;;;;;30.02;27.13;;;10.30;99.90;;;;;;5039072;28;20063;-59
2022/06/01 04:44:25;;;;;;;30.40;27.20;;;10.40;99.90;;;;;;5039655;28;20096;-59
2022/06/01 04:46:51;;;;;;;27.40;24.77;;;10.40;99.90;;;;;;5045694;28;20071;-60
2022/06/01 04:49:17;;;;;;;28.20;25.50;;;10.40;99.90;;;;;;5059470;28;20069;-59
2022/06/01 04:51:42;;;;;;;27.98;25.35;;;10.50;99.90;;;;;;5036529;28;20152;-60
2022/06/01 04:54:08;;;;;;;25.55;23.13;;;10.50;99.90;;;;;;5058866;28;20076;-59
2022/06/01 04:56:35;;;;;;;26.98;24.48;;;10.60;99.90;;;;;;5031555;28;20375;-58
2022/06/01 04:59:01;;;;;;;24.90;22.42;;;10.60;99.90;;;;;;5038136;28;20378;-59
2022/06/01 05:01:26;;;;;;;24.23;22.02;;;10.70;99.90;;;;;;5044480;28;20446;-59
2022/06/01 05:03:52;;;;;;;26.08;23.48;;;10.70;99.90;;;;;;5039731;28;20045;-59
2022/06/01 05:06:18;;;;;;;26.75;24.25;;;10.70;99.90;;;;;;5050449;28;20518;-59
2022/06/01 05:08:44;;;;;;;25.48;22.95;;;10.80;99.90;;;;;;5026086;28;20071;-60
2022/06/01 05:11:09;;;;;;;25.48;22.88;;;10.80;99.90;;;;;;5045132;28;20113;-59
2022/06/01 05:13:35;;;;;;;27.73;24.92;;;10.80;99.90;;;;;;5040739;28;20045;-59
2022/06/01 05:16:03;;;;;;;25.35;23.05;;;10.80;99.90;;;;;;5047521;28;20426;-59
2022/06/01 05:18:30;;;;;;;26.70;23.42;;;10.80;99.90;;;;;;5052664;28;20045;-60
2022/06/01 05:20:56;;;;;;;25.77;23.38;;;10.90;99.90;;;;;;5031037;28;20029;-59
2022/06/01 05:23:23;;;;;;;25.25;22.85;;;10.80;99.90;;;;;;5035200;28;20045;-59
2022/06/01 05:25:51;;;;;;;25.23;22.88;;;10.80;99.90;;;;;;5028509;28;20034;-60
2022/06/01 05:28:20;;;;;;;25.33;22.83;;;10.90;99.90;;;;;;5046035;28;20490;-59
2022/06/01 05:30:46;;;;;;;24.80;22.52;;;10.80;99.90;;;;;;5039331;28;20052;-59
2022/06/01 05:33:12;;;;;;;24.88;22.58;;;10.90;99.90;;;;;;5009721;28;20045;-59
2022/06/01 05:35:38;;;;;;;26.65;24.17;;;10.90;99.90;;;;;;5039044;28;20414;-60
2022/06/01 05:38:04;;;;;;;25.15;22.80;;;10.90;99.90;;;;;;5038131;28;20042;-60
2022/06/01 05:40:30;;;;;;;23.80;21.63;;;10.90;99.90;;;;;;5037462;28;20098;-61
2022/06/01 05:42:59;;;;;;;24.88;22.48;;;10.90;99.90;;;;;;5034966;28;20057;-60
2022/06/01 05:45:26;;;;;;;25.67;23.38;;;11.00;99.90;;;;;;5035594;28;20040;-61
2022/06/01 05:47:52;;;;;;;24.23;21.98;;;11.00;99.90;;;;;;5028598;28;20151;-60
2022/06/01 05:50:18;;;;;;;24.50;22.15;;;11.20;99.90;;;;;;5060308;28;20147;-60
2022/06/01 05:52:44;;;;;;;25.60;22.95;;;11.30;99.90;;;;;;5049983;28;20076;-60
2022/06/01 05:55:12;;;;;;;22.77;20.65;;;11.40;99.90;;;;;;5054054;28;20068;-60
2022/06/01 05:57:38;;;;;;;23.17;21.00;;;11.60;99.90;;;;;;5031389;28;20049;-60
2022/06/01 06:00:09;;;;;;;21.27;19.45;;;11.80;99.90;;;;;;5032892;28;20040;-60
2022/06/01 06:02:34;;;;;;;20.42;18.42;;;12.00;99.90;;;;;;5046247;28;20507;-60
2022/06/01 06:05:00;;;;;;;18.33;16.55;;;12.10;99.90;;;;;;5035354;28;20091;-60
2022/06/01 06:07:26;;;;;;;18.38;16.35;;;12.60;99.90;;;;;;5050945;28;20048;-61
2022/06/01 06:09:51;;;;;;;20.58;16.92;;;12.90;99.90;;;;;;5036036;28;20096;-61
2022/06/01 06:12:17;;;;;;;19.00;17.00;;;13.10;99.90;;;;;;5053710;28;20045;-61
2022/06/01 06:14:43;;;;;;;18.40;16.02;;;13.10;99.90;;;;;;5040053;28;20068;-60
2022/06/01 06:17:09;;;;;;;19.40;16.85;;;13.10;99.90;;;;;;5028032;28;20094;-61
2022/06/01 06:19:38;;;;;;;18.58;15.93;;;13.10;99.90;;;;;;5038169;28;20047;-60
2022/06/01 06:22:06;;;;;;;17.13;14.50;;;13.20;99.90;;;;;;5039731;28;20146;-61
2022/06/01 06:24:32;;;;;;;15.90;14.30;;;13.30;99.90;;;;;;5052269;28;20399;-60
2022/06/01 06:26:58;;;;;;;15.43;13.82;;;13.40;99.90;;;;;;5038561;28;20053;-61
2022/06/01 06:29:24;;;;;;;13.75;12.40;;;13.60;99.90;;;;;;5036278;28;20053;-61
2022/06/01 06:31:50;;;;;;;13.02;11.75;;;13.70;99.90;;;;;;5035444;28;20075;-60
2022/06/01 06:34:17;;;;;;;11.85;10.73;;;13.80;99.90;;;;;;5035646;28;20509;-60
2022/06/01 06:36:44;;;;;;;12.07;10.98;;;14.00;99.90;;;;;;5051764;28;20033;-60
2022/06/01 06:39:10;;;;;;;12.65;11.52;;;14.10;99.90;;;;;;5025346;28;20041;-61
2022/06/01 06:41:36;;;;;;;12.27;11.18;;;14.20;99.90;;;;;;5032789;28;20045;-61
2022/06/01 06:44:02;;;;;;;11.60;10.55;;;14.10;99.90;;;;;;5054314;28;20099;-61
2022/06/01 06:46:28;;;;;;;14.40;11.40;;;14.00;99.90;;;;;;5038154;28;20447;-61
2022/06/01 06:48:54;;;;;;;13.32;10.80;;;13.90;99.90;;;;;;5053583;28;20098;-61
2022/06/01 06:51:21;;;;;;;12.32;10.52;;;13.80;99.90;;;;;;5027379;28;20037;-61
2022/06/01 06:53:47;;;;;;;12.30;11.20;;;13.70;99.90;;;;;;5052496;28;20550;-60
2022/06/01 06:56:14;;;;;;;12.45;11.25;;;13.60;99.90;;;;;;5039264;28;20089;-59
2022/06/01 06:58:40;;;;;;;13.35;11.93;;;13.70;99.90;;;;;;5050960;28;20046;-59
2022/06/01 07:01:07;;;;;;;16.80;12.38;;;13.60;99.90;;;;;;5032517;28;20440;-60
2022/06/01 07:03:33;;;;;;;13.30;12.10;;;13.70;99.90;;;;;;5037225;28;20083;-60
2022/06/01 07:06:17;;;;;;;14.95;12.65;;;13.80;99.90;;;;;;5050475;28;20072;-60
2022/06/01 07:08:49;;;;;;;13.93;12.48;;;13.80;99.90;;;;;;5038348;28;20917;-60
2022/06/01 07:11:17;;;;;;;15.87;13.63;;;13.90;99.90;;;;;;5038530;28;20128;-60
2022/06/01 07:13:43;;;;;;;15.93;14.30;;;13.80;99.90;;;;;;5035441;28;20068;-60
2022/06/01 07:16:30;;;;;;;15.18;13.70;;;13.70;99.90;;;;;;5035926;28;20091;-61
2022/06/01 07:18:58;;;;;;;15.63;14.25;;;13.70;99.90;;;;;;5032610;28;20045;-61
2022/06/01 07:21:25;;;;;;;16.40;15.00;;;13.80;99.90;;;;;;5036515;28;20492;-60
2022/06/01 07:23:51;;;;;;;17.00;15.50;;;13.80;99.90;;;;;;5036845;28;20036;-60
2022/06/01 07:26:20;;;;;;;16.90;15.30;;;13.90;99.90;;;;;;5033801;28;20437;-60
2022/06/01 07:28:46;;;;;;;17.05;15.40;;;13.80;99.90;;;;;;5035073;28;20052;-60
2022/06/01 07:31:13;;;;;;;17.27;15.68;;;13.90;99.90;;;;;;5037996;28;20036;-60
2022/06/01 07:33:39;;;;;;;17.45;15.82;;;13.90;99.90;;;;;;5034974;28;20119;-60
2022/06/01 07:36:08;;;;;;;16.95;15.30;;;14.00;99.90;;;;;;5034785;28;20133;-59
2022/06/01 07:44:10;;;;;;;14.93;13.63;;;14.30;99.90;;;;;;5036227;28;20434;-61
2022/06/01 07:46:37;;;;;;;13.85;12.65;;;14.70;99.90;;;;;;5054344;28;20413;-61
2022/06/01 07:49:07;;;;;;;14.93;13.43;;;15.10;99.90;;;;;;5038275;28;20491;-61
2022/06/01 07:51:36;;;;;;;14.43;12.75;;;15.50;99.90;;;;;;5034185;28;20107;-61
2022/06/01 07:54:02;;;;;;;6.30;5.80;;;15.80;99.90;;;;;;5043143;28;20109;-60
2022/06/01 07:56:28;;;;;;;3.63;2.80;;;15.90;99.90;;;;;;5038319;28;20047;-60
2022/06/01 07:58:53;;;;;;;2.90;2.70;;;15.70;99.90;;;;;;5027732;28;20049;-61
2022/06/01 08:01:21;;;;;;;2.75;2.10;;;15.40;99.90;;;;;;5063359;28;20041;-61
2022/06/01 08:03:47;;;;;;;2.17;1.80;;;15.20;99.90;;;;;;5041897;28;20045;-60
2022/06/01 08:06:14;;;;;;;2.45;1.40;;;15.10;99.90;;;;;;5040577;28;20183;-60
2022/06/01 08:08:40;;;;;;;1.52;1.40;;;14.70;99.90;;;;;;5058824;28;20530;-60
2022/06/01 08:11:05;;;;;;;1.00;0.90;;;14.40;99.90;;;;;;5043213;28;20053;-61
2022/06/01 08:13:31;;;;;;;2.08;0.90;;;14.00;99.90;;;;;;5035732;28;20145;-60
2022/06/01 08:15:57;;;;;;;1.15;0.60;;;13.60;99.90;;;;;;5026282;28;20045;-61
2022/06/01 08:18:24;;;;;;;1.05;0.93;;;13.30;99.90;;;;;;5048802;28;20049;-60
2022/06/01 08:20:51;;;;;;;2.75;1.30;;;13.00;99.90;;;;;;5045142;28;20132;-61
2022/06/01 08:23:17;;;;;;;3.15;1.85;;;12.70;99.90;;;;;;5044526;28;20042;-61
2022/06/01 08:25:43;;;;;;;1.73;1.63;;;12.80;99.90;;;;;;5038845;28;20037;-61
2022/06/01 08:28:09;;;;;;;3.67;1.35;;;12.70;99.90;;;;;;5064708;28;20854;-60
2022/06/01 08:30:37;;;;;;;2.25;1.65;;;12.70;99.90;;;;;;5060036;28;20067;-61
2022/06/01 08:33:04;;;;;;;3.20;1.60;;;12.60;99.90;;;;;;5059945;28;20057;-61
2022/06/01 08:35:42;;;;;;;2.58;1.23;;;12.60;99.90;;;;;;5033244;28;20040;-61
2022/06/01 08:38:08;;;;;;;2.45;1.50;;;12.50;99.90;;;;;;5041077;28;20134;-61
2022/06/01 08:40:43;;;;;;;3.15;1.90;;;12.30;99.90;;;;;;5037995;28;20371;-60
2022/06/01 08:43:14;;;;;;;2.55;1.85;;;12.30;99.90;;;;;;5045975;28;20777;-61
2022/06/01 08:45:47;;;;;;;3.22;2.30;;;12.30;99.90;;;;;;5047154;28;20037;-60
2022/06/01 08:48:19;;;;;;;2.55;2.22;;;12.30;99.90;;;;;;5037580;28;20041;-60
2022/06/01 08:50:45;;;;;;;2.83;2.30;;;12.30;99.90;;;;;;5047797;28;20521;-61
2022/06/01 08:53:11;;;;;;;5.82;2.65;;;12.20;99.90;;;;;;5049812;28;20133;-61
2022/06/01 08:55:51;;;;;;;3.38;2.60;;;12.30;99.90;;;;;;5034234;28;20044;-61
2022/06/01 08:58:31;;;;;;;2.00;1.90;;;12.30;99.90;;;;;;5033174;28;20400;-61
2022/06/01 09:01:01;;;;;;;2.85;1.80;;;12.30;99.90;;;;;;5063302;28;20046;-61
2022/06/01 09:03:42;;;;;;;4.20;1.80;;;12.50;99.90;;;;;;5064995;28;20049;-60
2022/06/01 09:06:19;;;;;;;2.33;1.90;;;12.60;99.90;;;;;;5057295;28;20103;-61
2022/06/01 09:09:01;;;;;;;1.70;1.60;;;13.00;99.90;;;;;;5062056;28;20582;-61
2022/06/01 09:11:32;;;;;;;1.52;1.42;;;13.10;99.90;;;;;;5058909;28;20103;-61
2022/06/01 09:14:19;;;;;;;2.00;1.70;;;13.30;99.90;;;;;;5031282;28;20029;-60
2022/06/01 09:16:49;;;;;;;1.58;1.48;;;13.60;99.90;;;;;;5048350;28;20557;-61
2022/06/01 09:19:20;;;;;;;1.40;1.30;;;13.40;99.90;;;;;;5030246;28;20052;-60
2022/06/01 09:24:57;;;;;;;1.50;1.40;;;14.20;99.90;;;;;;5030118;28;20395;-60
2022/06/01 09:27:53;;;;;;;1.90;1.20;;;14.70;99.90;;;;;;5029512;28;20492;-61
2022/06/01 09:30:36;;;;;;;3.17;1.50;;;14.60;99.90;;;;;;5031806;28;20045;-60
2022/06/01 09:33:15;;;;;;;1.70;1.60;;;14.90;99.90;;;;;;5061271;28;20045;-60
2022/06/01 09:35:56;;;;;;;2.00;1.48;;;14.70;99.90;;;;;;5031462;28;20686;-61
2022/06/01 09:38:37;;;;;;;1.67;1.48;;;15.10;99.90;;;;;;5040521;28;20037;-61
2022/06/01 09:41:09;;;;;;;2.13;1.85;;;16.00;99.90;;;;;;5056464;28;20128;-61
2022/06/01 09:43:39;;;;;;;3.83;1.83;;;16.50;99.90;;;;;;5030616;28;20180;-61
2022/06/01 09:46:06;;;;;;;2.10;1.90;;;16.60;99.90;;;;;;5031450;28;20078;-61
2022/06/01 09:48:45;;;;;;;2.70;2.50;;;16.30;99.90;;;;;;5037107;28;20045;-60
2022/06/01 09:51:18;;;;;;;2.78;2.58;;;16.10;99.90;;;;;;5047374;28;20072;-61
2022/06/01 09:54:07;;;;;;;4.15;3.75;;;16.50;99.90;;;;;;5047170;28;20040;-61
2022/06/01 09:56:44;;;;;;;3.30;3.10;;;16.30;99.90;;;;;;5048046;28;20033;-61
2022/06/01 10:08:06;;;;;;;4.40;4.10;;;15.40;99.90;;;;;;5061026;28;20075;-59
2022/06/01 10:10:32;;;;;;;4.93;4.53;;;15.00;99.90;;;;;;5055306;28;20407;-59
2022/06/01 10:12:59;;;;;;;5.05;4.70;;;15.00;99.90;;;;;;5045579;28;20044;-60
2022/06/01 10:15:34;;;;;;;5.53;5.03;;;15.10;99.90;;;;;;5060567;28;20053;-59
2022/06/01 10:18:16;;;;;;;5.00;4.60;;;15.20;99.90;;;;;;5042990;28;20057;-59
2022/06/01 10:21:08;;;;;;;4.65;4.35;;;15.20;99.90;;;;;;5052506;28;20041;-60
2022/06/01 10:23:56;;;;;;;4.93;4.53;;;15.40;99.90;;;;;;5046779;28;20051;-60
2022/06/01 10:26:36;;;;;;;4.55;4.25;;;15.50;99.90;;;;;;5044714;28;20064;-60
2022/06/01 10:29:08;;;;;;;3.80;3.60;;;15.30;99.90;;;;;;5036980;28;20045;-62
2022/06/01 10:31:53;;;;;;;2.75;2.55;;;15.50;99.90;;;;;;5030188;28;20041;-59
2022/06/01 10:34:31;;;;;;;3.00;2.80;;;15.60;99.90;;;;;;5034766;28;20037;-59
2022/06/01 10:37:23;;;;;;;3.17;2.88;;;15.70;99.90;;;;;;5047620;28;20522;-59
2022/06/01 10:40:15;;;;;;;2.75;2.15;;;15.60;99.90;;;;;;5047141;28;20175;-60
2022/06/01 10:45:45;;;;;;;1.80;1.70;;;16.10;99.90;;;;;;5043859;28;20041;-60
2022/06/01 10:48:12;;;;;;;1.70;1.42;;;15.80;99.90;;;;;;5045235;28;20040;-60
2022/06/01 10:51:11;;;;;;;3.88;2.55;;;16.40;99.90;;;;;;5035117;28;20099;-60
2022/06/01 10:53:58;;;;;;;2.72;2.53;;;17.30;99.90;;;;;;5058717;28;20048;-59
2022/06/01 10:56:24;;;;;;;1.70;1.50;;;17.30;99.90;;;;;;5033411;28;20045;-60
2022/06/01 10:58:52;;;;;;;3.08;1.10;;;16.90;99.90;;;;;;5030767;28;20360;-59
2022/06/01 11:01:32;;;;;;;2.92;1.13;;;16.70;99.90;;;;;;5043162;28;20080;-58
2022/06/01 11:04:06;;;;;;;1.50;0.80;;;16.50;99.90;;;;;;5030722;28;20515;-58
2022/06/01 11:06:44;;;;;;;3.53;0.70;;;16.20;99.90;;;;;;5034533;28;20048;-59
2022/06/01 11:09:20;;;;;;;2.50;0.50;;;15.70;99.90;;;;;;5028838;28;20118;-59
2022/06/01 11:12:04;;;;;;;3.80;0.60;;;15.50;99.90;;;;;;5030343;28;20057;-59
2022/06/01 11:14:39;;;;;;;2.15;0.52;;;15.40;99.90;;;;;;5030348;28;20094;-60
2022/06/01 11:17:37;;;;;;;2.22;0.55;;;15.10;99.90;;;;;;5038854;28;20050;-58
2022/06/01 11:20:18;;;;;;;2.38;1.00;;;15.30;99.90;;;;;;5028984;28;20109;-58
2022/06/01 11:22:59;;;;;;;2.95;1.02;;;15.50;99.90;;;;;;5029694;28;20033;-59
2022/06/01 11:25:34;;;;;;;2.15;0.80;;;15.40;99.90;;;;;;5049181;28;20502;-59
2022/06/01 11:28:38;;;;;;;2.42;1.13;;;15.40;99.90;;;;;;5057953;28;20140;-59
2022/06/01 11:31:16;;;;;;;3.92;1.30;;;15.30;99.90;;;;;;5039855;28;20106;-59
2022/06/01 11:33:50;;;;;;;2.40;1.25;;;15.20;99.90;;;;;;5044167;28;21489;-59
2022/06/01 11:36:15;;;;;;;2.70;1.20;;;15.60;99.90;;;;;;5014616;28;20041;-58
2022/06/01 11:38:50;;;;;;;3.00;1.00;;;15.80;99.90;;;;;;5040840;28;20071;-59
2022/06/01 11:41:23;;;;;;;1.70;1.00;;;15.70;99.90;;;;;;5047019;28;20511;-59
2022/06/01 11:44:04;;;;;;;2.42;0.90;;;15.50;99.90;;;;;;5037909;28;20037;-59
2022/06/01 11:46:33;;;;;;;2.03;0.93;;;15.40;99.90;;;;;;5058174;28;20045;-59
2022/06/01 11:49:09;;;;;;;4.78;1.00;;;15.30;99.90;;;;;;5050563;28;20450;-58
2022/06/01 11:51:37;;;;;;;3.30;1.02;;;15.30;99.90;;;;;;5028702;28;20496;-59
2022/06/01 11:54:11;;;;;;;3.35;0.80;;;15.90;99.90;;;;;;5049848;28;20050;-58
2022/06/01 11:56:59;;;;;;;1.88;0.70;;;17.00;99.90;;;;;;5042601;28;20112;-59
2022/06/01 11:59:28;;;;;;;2.08;0.90;;;16.90;99.90;;;;;;5056913;28;20080;-59
2022/06/01 12:01:57;;;;;;;2.40;0.60;;;16.80;99.90;;;;;;5045427;28;20116;-59
2022/06/01 12:04:35;;;;;;;1.92;0.30;;;16.70;99.90;;;;;;5043482;28;20079;-59
2022/06/01 12:07:11;;;;;;;1.85;0.50;;;16.20;99.90;;;;;;5046781;28;20041;-59
2022/06/01 12:10:01;;;;;;;1.25;0.40;;;15.90;99.90;;;;;;5045286;28;20380;-59
2022/06/01 12:12:56;;;;;;;0.68;0.30;;;15.50;99.90;;;;;;5031637;28;20037;-59
2022/06/01 12:15:32;;;;;;;0.45;0.20;;;15.40;99.90;;;;;;5018014;28;20045;-59
2022/06/01 12:18:14;;;;;;;0.60;0.25;;;15.50;99.90;;;;;;5050299;28;20057;-59
2022/06/01 12:20:40;;;;;;;1.45;0.22;;;15.70;99.90;;;;;;5031643;28;20481;-59
2022/06/01 12:29:13;;;;;;;1.15;0.28;;;16.50;99.90;;;;;;5033923;28;20077;-59
2022/06/01 12:31:56;;;;;;;2.38;0.20;;;16.60;99.90;;;;;;5042098;28;20061;-59
2022/06/01 12:34:38;;;;;;;1.00;0.30;;;16.90;99.90;;;;;;5046581;28;20048;-59
2022/06/01 12:37:07;;;;;;;1.10;0.30;;;17.10;99.90;;;;;;5045951;28;20041;-59
2022/06/01 12:39:41;;;;;;;2.20;0.25;;;17.50;99.90;;;;;;5046548;28;20049;-59
2022/06/01 12:42:20;;;;;;;0.70;0.20;;;17.90;99.90;;;;;;5051056;28;20053;-61
2022/06/01 12:44:50;;;;;;;0.88;0.20;;;18.00;99.90;;;;;;5052312;28;20063;-61
2022/06/01 12:47:32;;;;;;;2.45;0.30;;;18.70;99.90;;;;;;5048803;28;20048;-61
2022/06/01 12:50:13;;;;;;;0.60;0.35;;;18.30;99.90;;;;;;5052386;28;20033;-61
2022/06/01 12:52:39;;;;;;;0.88;0.30;;;17.80;99.90;;;;;;5033992;28;20041;-61
2022/06/01 12:55:11;;;;;;;1.45;0.22;;;17.10;99.90;;;;;;5014077;28;20029;-61
2022/06/01 12:57:47;;;;;;;0.40;0.20;;;16.50;99.90;;;;;;5030523;28;20049;-61
2022/06/01 13:00:13;;;;;;;2.45;0.20;;;16.30;99.90;;;;;;5032493;28;20179;-60
2022/06/01 13:02:41;;;;;;;0.75;0.30;;;16.00;99.90;;;;;;5030581;28;20133;-60
2022/06/01 13:05:13;;;;;;;1.85;0.20;;;15.80;99.90;;;;;;5030760;28;20084;-60
2022/06/01 13:07:44;;;;;;;0.80;0.30;;;15.70;99.90;;;;;;5030262;28;20089;-60
2022/06/01 13:10:12;;;;;;;0.60;0.20;;;15.60;99.90;;;;;;5030761;28;20217;-60
2022/06/01 13:12:39;;;;;;;0.30;0.10;;;16.20;99.90;;;;;;5031757;28;20076;-60
2022/06/01 13:15:14;;;;;;;0.15;0.00;;;17.30;99.90;;;;;;5031854;28;20439;-60
2022/06/01 13:17:57;;;;;;;0.30;0.05;;;18.10;99.90;;;;;;5030222;28;20041;-60
2022/06/01 13:20:42;;;;;;;0.30;0.10;;;19.00;99.90;;;;;;5030736;28;20558;-60
2022/06/01 13:23:31;;;;;;;0.38;0.00;;;19.80;99.90;;;;;;5032105;28;20038;-61
2022/06/01 13:26:02;;;;;;;1.48;0.10;;;20.00;99.90;;;;;;5031684;28;20053;-60
2022/06/01 13:28:28;;;;;;;2.13;0.10;;;20.60;99.90;;;;;;5030077;28;20088;-60
2022/06/01 13:30:56;;;;;;;0.22;0.00;;;19.90;99.90;;;;;;5030545;28;20041;-60